createdAt,value
2023-02-13T00:01:40.900Z,16.92
2023-02-13T00:06:42.351Z,17.92
2023-02-13T00:11:43.776Z,20.70
2023-02-13T00:16:45.204Z,21.52
2023-02-13T00:21:46.647Z,20.17
2023-02-13T00:26:48.109Z,21.35
2023-02-13T00:31:49.866Z,22.20
2023-02-13T00:36:51.333Z,20.58
2023-02-13T00:41:52.755Z,24.98
2023-02-13T00:46:54.331Z,23.75
2023-02-13T00:51:55.751Z,21.02
2023-02-13T00:56:57.151Z,21.10
2023-02-13T01:01:58.608Z,22.90
2023-02-13T01:07:00.160Z,20.98
2023-02-13T01:12:01.685Z,21.67
2023-02-13T01:17:03.154Z,22.20
2023-02-13T01:22:04.634Z,18.75
2023-02-13T01:27:06.143Z,22.00
2023-02-13T01:32:07.651Z,21.95
2023-02-13T01:37:09.099Z,19.65
2023-02-13T01:42:17.429Z,20.85
2023-02-13T01:47:45.280Z,21.48
2023-02-13T01:53:20.224Z,20.55
2023-02-13T01:58:27.974Z,21.75
2023-02-13T02:03:41.619Z,21.65
2023-02-13T02:08:49.669Z,21.25
2023-02-13T02:13:57.390Z,22.63
2023-02-13T02:19:15.875Z,23.35
2023-02-13T02:24:39.101Z,24.23
2023-02-13T02:30:18.548Z,20.08
2023-02-13T02:35:45.532Z,21.00
2023-02-13T02:41:41.388Z,20.35
2023-02-13T02:47:27.392Z,20.75
2023-02-13T02:52:53.537Z,18.15
2023-02-13T02:58:37.914Z,18.63
2023-02-13T03:03:58.586Z,17.75
2023-02-13T03:09:22.321Z,18.05
2023-02-13T03:14:27.138Z,17.77
2023-02-13T03:19:59.065Z,20.20
2023-02-13T03:25:06.629Z,18.17
2023-02-13T03:30:24.696Z,18.13
2023-02-13T03:35:56.760Z,18.02
2023-02-13T03:41:20.642Z,19.45
2023-02-13T03:46:24.408Z,19.55
2023-02-13T03:51:36.191Z,21.38
2023-02-13T03:57:00.903Z,19.08
2023-02-13T04:02:13.464Z,21.42
2023-02-13T04:07:29.248Z,21.50
2023-02-13T04:12:52.414Z,21.50
2023-02-13T04:18:04.931Z,22.05
2023-02-13T04:23:08.734Z,19.17
2023-02-13T04:28:10.404Z,24.38
2023-02-13T04:33:11.921Z,26.52
2023-02-13T04:38:13.343Z,20.08
2023-02-13T04:43:14.760Z,19.33
2023-02-13T04:48:16.234Z,20.10
2023-02-13T04:53:17.637Z,18.05
2023-02-13T04:58:19.396Z,19.40
2023-02-13T05:03:20.871Z,20.67
2023-02-13T05:08:22.284Z,19.45
2023-02-13T05:13:23.832Z,18.90
2023-02-13T05:18:25.376Z,19.95
2023-02-13T05:23:26.872Z,19.60
2023-02-13T05:28:47.393Z,18.02
2023-02-13T05:33:48.876Z,21.40
2023-02-13T05:38:50.318Z,20.25
2023-02-13T05:43:51.722Z,18.67
2023-02-13T05:48:53.214Z,19.40
2023-02-13T05:53:54.683Z,18.63
2023-02-13T05:58:56.660Z,19.70
2023-02-13T06:03:59.618Z,18.58
2023-02-13T06:09:01.923Z,22.55
2023-02-13T06:14:03.415Z,20.83
2023-02-13T06:19:04.921Z,19.15
2023-02-13T06:24:07.974Z,23.20
2023-02-13T06:34:11.044Z,17.08
2023-02-13T06:39:12.609Z,20.92
2023-02-13T06:44:14.140Z,22.55
2023-02-13T06:49:15.722Z,21.50
2023-02-13T06:54:17.145Z,21.70
2023-02-13T06:59:18.571Z,20.33
2023-02-13T07:04:19.976Z,23.60
2023-02-13T07:09:21.381Z,23.10
2023-02-13T07:14:22.879Z,21.20
2023-02-13T07:19:24.367Z,22.63
2023-02-13T07:24:25.782Z,21.35
2023-02-13T07:29:27.646Z,20.92
2023-02-13T07:34:29.208Z,20.13
2023-02-13T07:39:31.641Z,21.42
2023-02-13T07:44:33.261Z,18.33
2023-02-13T07:49:36.841Z,21.05
2023-02-13T07:54:46.989Z,21.13
2023-02-13T07:59:48.408Z,21.90
2023-02-13T08:04:49.881Z,19.15
2023-02-13T08:10:09.875Z,22.95
2023-02-13T08:15:15.669Z,27.85
2023-02-13T08:20:17.264Z,28.42
2023-02-13T08:25:19.598Z,28.92
2023-02-13T08:30:21.177Z,30.07
2023-02-13T08:35:26.628Z,26.77
2023-02-13T08:40:28.191Z,28.50
2023-02-13T08:45:30.814Z,25.27
2023-02-13T08:50:32.357Z,25.27
2023-02-13T08:55:34.203Z,27.15
2023-02-13T09:00:35.855Z,34.75
2023-02-13T09:05:37.314Z,24.50
2023-02-13T09:10:39.344Z,21.98
2023-02-13T09:15:41.704Z,23.33
2023-02-13T09:20:43.126Z,22.10
2023-02-13T09:25:44.550Z,25.50
2023-02-13T09:30:46.175Z,21.52
2023-02-13T09:35:47.747Z,22.25
2023-02-13T09:40:53.836Z,24.38
2023-02-13T09:45:59.954Z,20.67
2023-02-13T09:51:01.773Z,20.92
2023-02-13T09:56:35.730Z,18.73
2023-02-13T10:01:44.020Z,17.40
2023-02-13T10:06:50.295Z,18.45
2023-02-13T10:12:13.668Z,18.38
2023-02-13T10:17:24.514Z,15.77
2023-02-13T10:22:33.044Z,15.90
2023-02-13T10:27:38.934Z,14.93
2023-02-13T10:33:18.738Z,13.68
2023-02-13T10:38:22.199Z,13.35
2023-02-13T10:43:29.179Z,13.25
2023-02-13T10:49:08.367Z,12.82
2023-02-13T10:54:24.820Z,12.43
2023-02-13T10:59:44.826Z,12.70
2023-02-13T11:04:46.663Z,12.07
2023-02-13T11:09:51.042Z,11.98
2023-02-13T11:14:58.638Z,8.80
2023-02-13T11:20:02.856Z,9.05
2023-02-13T11:25:19.913Z,9.52
2023-02-13T11:30:36.280Z,8.80
2023-02-13T11:35:38.063Z,9.27
2023-02-13T11:40:40.817Z,8.23
2023-02-13T11:45:42.250Z,8.90
2023-02-13T11:50:46.121Z,9.43
2023-02-13T11:56:01.548Z,8.93
2023-02-13T12:01:28.302Z,8.25
2023-02-13T12:06:29.912Z,9.25
2023-02-13T12:11:51.741Z,8.38
2023-02-13T12:17:07.091Z,8.88
2023-02-13T12:22:20.970Z,8.95
2023-02-13T12:27:35.530Z,9.10
2023-02-13T12:33:03.431Z,10.20
2023-02-13T12:38:40.176Z,10.77
2023-02-13T12:44:17.172Z,10.27
2023-02-13T12:49:36.670Z,10.27
2023-02-13T12:55:02.437Z,9.60
2023-02-13T13:00:29.564Z,9.13
2023-02-13T13:05:50.701Z,8.73
2023-02-13T13:11:26.191Z,9.18
2023-02-13T13:16:38.174Z,8.43
2023-02-13T13:21:52.617Z,9.10
2023-02-13T13:26:57.593Z,7.90
2023-02-13T13:32:07.082Z,8.82
2023-02-13T13:37:50.111Z,8.43
2023-02-13T13:43:12.806Z,8.27
2023-02-13T13:48:40.424Z,8.82
2023-02-13T13:54:00.285Z,8.73
2023-02-13T13:59:01.721Z,8.57
2023-02-13T14:04:24.335Z,10.30
2023-02-13T14:09:43.158Z,10.63
2023-02-13T14:14:45.098Z,8.80
2023-02-13T14:19:52.742Z,9.23
2023-02-13T14:24:56.629Z,8.77
2023-02-13T14:29:59.413Z,8.45
2023-02-13T14:35:05.830Z,9.70
2023-02-13T14:40:11.538Z,10.52
2023-02-13T14:45:20.671Z,9.55
2023-02-13T14:50:28.691Z,9.75
2023-02-13T14:55:40.267Z,9.95
2023-02-13T15:00:49.602Z,10.65
2023-02-13T15:05:57.789Z,9.95
2023-02-13T15:10:59.431Z,11.93
2023-02-13T15:16:06.860Z,12.65
2023-02-13T15:21:16.207Z,13.65
2023-02-13T15:26:23.820Z,10.85
2023-02-13T15:31:25.484Z,12.48
2023-02-13T15:36:40.126Z,13.05
2023-02-13T15:41:45.906Z,12.63
2023-02-13T15:46:49.005Z,13.02
2023-02-13T15:56:55.759Z,13.32
2023-02-13T16:01:58.902Z,14.07
2023-02-13T16:07:00.922Z,12.93
2023-02-13T16:12:06.279Z,14.32
2023-02-13T16:17:18.280Z,12.98
2023-02-13T16:22:45.273Z,13.85
2023-02-13T16:27:48.664Z,13.30
2023-02-13T16:32:50.139Z,14.20
2023-02-13T16:37:56.200Z,13.00
2023-02-13T16:43:35.167Z,13.32
2023-02-13T16:48:37.064Z,14.18
2023-02-13T16:53:38.938Z,13.45
2023-02-13T16:58:41.071Z,13.27
2023-02-13T17:03:42.525Z,13.53
2023-02-13T17:08:44.038Z,12.32
2023-02-13T17:13:45.437Z,13.95
2023-02-13T17:18:46.843Z,14.40
2023-02-13T17:23:48.275Z,15.18
2023-02-13T17:28:49.691Z,13.82
2023-02-13T17:33:51.420Z,15.68
2023-02-13T17:38:53.485Z,15.52
2023-02-13T17:43:55.012Z,13.82
2023-02-13T17:48:56.424Z,14.15
2023-02-13T17:53:58.086Z,14.73
2023-02-13T17:58:59.513Z,14.13
2023-02-13T18:04:01.110Z,15.40
2023-02-13T18:09:02.703Z,14.68
2023-02-13T18:14:04.178Z,14.05
2023-02-13T18:19:05.827Z,14.18
2023-02-13T18:24:08.641Z,16.75
2023-02-13T18:29:10.061Z,16.50
2023-02-13T18:34:11.618Z,16.17
2023-02-13T18:39:13.465Z,15.43
2023-02-13T18:44:26.984Z,17.27
2023-02-13T18:49:29.440Z,16.98
2023-02-13T18:54:31.032Z,16.13
2023-02-13T18:59:32.480Z,16.33
2023-02-13T19:04:35.685Z,17.90
2023-02-13T19:09:40.148Z,16.33
2023-02-13T19:14:41.602Z,17.08
2023-02-13T19:19:46.347Z,14.95
2023-02-13T19:24:47.833Z,16.65
2023-02-13T19:29:49.328Z,15.75
2023-02-13T19:34:50.810Z,16.05
2023-02-13T19:39:53.396Z,13.95
2023-02-13T19:44:54.962Z,14.43
2023-02-13T19:49:56.385Z,15.02
2023-02-13T19:54:57.922Z,15.88
2023-02-13T20:00:01.772Z,16.75
2023-02-13T20:05:13.777Z,18.05
2023-02-13T20:10:15.349Z,17.45
2023-02-13T20:15:16.873Z,19.10
2023-02-13T20:20:18.616Z,19.08
2023-02-13T20:25:21.962Z,20.02
2023-02-13T20:30:23.529Z,20.27
2023-02-13T20:35:25.051Z,21.05
2023-02-13T20:40:26.701Z,21.60
2023-02-13T20:45:28.192Z,21.70
2023-02-13T20:50:29.659Z,19.42
2023-02-13T20:55:31.209Z,19.63
2023-02-13T21:00:32.719Z,17.95
2023-02-13T21:05:34.197Z,17.27
2023-02-13T21:10:37.914Z,16.75
2023-02-13T21:15:39.432Z,18.13
2023-02-13T21:20:40.856Z,16.88
2023-02-13T21:25:42.435Z,18.10
2023-02-13T21:30:43.892Z,17.63
2023-02-13T21:35:45.362Z,17.65
2023-02-13T21:40:46.778Z,17.73
2023-02-13T21:45:48.439Z,17.27
2023-02-13T21:50:50.085Z,15.85
2023-02-13T21:55:51.487Z,17.10
2023-02-13T22:00:52.920Z,18.15
2023-02-13T22:05:54.338Z,16.83
2023-02-13T22:10:58.029Z,18.27
2023-02-13T22:16:01.708Z,16.55
2023-02-13T22:21:16.204Z,16.05
2023-02-13T22:26:20.433Z,16.83
2023-02-13T22:31:25.413Z,17.60
2023-02-13T22:36:27.378Z,18.05
2023-02-13T22:41:28.930Z,18.38
2023-02-13T22:46:32.320Z,18.02
2023-02-13T22:51:35.978Z,17.02
2023-02-13T22:56:37.400Z,16.40
2023-02-13T23:01:39.717Z,16.20
2023-02-13T23:06:41.267Z,16.17
2023-02-13T23:12:01.122Z,16.55
2023-02-13T23:17:21.036Z,16.83
2023-02-13T23:22:22.587Z,15.82
2023-02-13T23:27:23.982Z,14.70
2023-02-13T23:32:25.495Z,16.80
2023-02-13T23:37:26.908Z,17.10
2023-02-13T23:42:28.786Z,16.55
2023-02-13T23:47:30.189Z,17.38
2023-02-13T23:52:31.620Z,17.58
2023-02-13T23:57:33.041Z,17.33
